sensor_id;sensor_type;location;lat;lon;timestamp;pressure;altitude;pressure_sealevel;temperature;humidity
69842;BME280;57138;51.326;-0.068;2024-03-06T00:02:10;99976.13;;;6.10;100.00
69842;BME280;57138;51.326;-0.068;2024-03-06T00:04:36;99972.47;;;6.11;100.00
69842;BME280;57138;51.326;-0.068;2024-03-06T00:07:01;99978.81;;;6.19;100.00
69842;BME280;57138;51.326;-0.068;2024-03-06T00:09:27;99980.44;;;6.20;100.00
69842;BME280;57138;51.326;-0.068;2024-03-06T00:11:54;99977.78;;;6.11;100.00
69842;BME280;57138;51.326;-0.068;2024-03-06T00:14:20;99976.13;;;6.10;100.00
69842;BME280;57138;51.326;-0.068;2024-03-06T00:16:49;99982.44;;;6.09;100.00
69842;BME280;57138;51.326;-0.068;2024-03-06T00:19:19;99973.16;;;5.97;100.00
69842;BME280;57138;51.326;-0.068;2024-03-06T00:21:45;99982.41;;;6.01;100.00
69842;BME280;57138;51.326;-0.068;2024-03-06T00:24:15;99977.09;;;5.85;100.00
69842;BME280;57138;51.326;-0.068;2024-03-06T00:26:41;99985.03;;;5.93;100.00
69842;BME280;57138;51.326;-0.068;2024-03-06T00:29:07;99984.03;;;5.86;100.00
69842;BME280;57138;51.326;-0.068;2024-03-06T00:31:32;99989.66;;;5.83;100.00
69842;BME280;57138;51.326;-0.068;2024-03-06T00:33:58;99977.72;;;5.79;100.00
69842;BME280;57138;51.326;-0.068;2024-03-06T00:36:23;99985.84;;;5.77;100.00
69842;BME280;57138;51.326;-0.068;2024-03-06T00:38:49;99991.34;;;5.84;100.00
69842;BME280;57138;51.326;-0.068;2024-03-06T00:41:14;99999.53;;;5.56;100.00
69842;BME280;57138;51.326;-0.068;2024-03-06T00:43:39;99995.25;;;5.55;100.00
69842;BME280;57138;51.326;-0.068;2024-03-06T00:46:05;100008.53;;;5.55;100.00
69842;BME280;57138;51.326;-0.068;2024-03-06T00:48:30;100011.97;;;5.47;100.00
69842;BME280;57138;51.326;-0.068;2024-03-06T00:50:56;100014.97;;;5.52;100.00
69842;BME280;57138;51.326;-0.068;2024-03-06T00:53:21;100010.81;;;5.50;100.00
69842;BME280;57138;51.326;-0.068;2024-03-06T00:55:47;100013.50;;;5.58;100.00
69842;BME280;57138;51.326;-0.068;2024-03-06T00:58:12;100013.19;;;5.61;100.00
69842;BME280;57138;51.326;-0.068;2024-03-06T01:00:38;100014.97;;;5.52;100.00
69842;BME280;57138;51.326;-0.068;2024-03-06T01:03:04;100009.16;;;5.49;100.00
69842;BME280;57138;51.326;-0.068;2024-03-06T01:05:30;100015.13;;;5.51;100.00
69842;BME280;57138;51.326;-0.068;2024-03-06T01:07:55;100009.28;;;5.39;100.00
69842;BME280;57138;51.326;-0.068;2024-03-06T01:10:22;100006.25;;;5.26;100.00
69842;BME280;57138;51.326;-0.068;2024-03-06T01:12:49;100006.09;;;5.27;100.00
69842;BME280;57138;51.326;-0.068;2024-03-06T01:15:16;100003.44;;;5.27;100.00
69842;BME280;57138;51.326;-0.068;2024-03-06T01:17:43;100009.06;;;5.24;100.00
69842;BME280;57138;51.326;-0.068;2024-03-06T01:20:09;100022.28;;;5.16;100.00
69842;BME280;57138;51.326;-0.068;2024-03-06T01:22:35;100021.91;;;5.11;100.00
69842;BME280;57138;51.326;-0.068;2024-03-06T01:25:01;100022.75;;;5.11;100.00
69842;BME280;57138;51.326;-0.068;2024-03-06T01:27:27;100022.03;;;5.01;100.00
69842;BME280;57138;51.326;-0.068;2024-03-06T01:29:52;100014.19;;;4.91;100.00
69842;BME280;57138;51.326;-0.068;2024-03-06T01:32:18;100019.13;;;4.86;100.00
69842;BME280;57138;51.326;-0.068;2024-03-06T01:34:43;100017.16;;;4.88;100.00
69842;BME280;57138;51.326;-0.068;2024-03-06T01:37:09;100012.78;;;4.79;100.00
69842;BME280;57138;51.326;-0.068;2024-03-06T01:39:34;100009.13;;;4.80;100.00
69842;BME280;57138;51.326;-0.068;2024-03-06T01:42:01;100012.75;;;4.71;100.00
69842;BME280;57138;51.326;-0.068;2024-03-06T01:44:27;100013.72;;;4.70;100.00
69842;BME280;57138;51.326;-0.068;2024-03-06T01:46:53;100002.16;;;4.71;100.00
69842;BME280;57138;51.326;-0.068;2024-03-06T01:49:20;100007.38;;;4.62;100.00
69842;BME280;57138;51.326;-0.068;2024-03-06T01:51:49;100008.75;;;4.66;100.00
69842;BME280;57138;51.326;-0.068;2024-03-06T01:54:16;100003.56;;;4.57;100.00
69842;BME280;57138;51.326;-0.068;2024-03-06T01:56:45;100000.63;;;4.42;100.00
69842;BME280;57138;51.326;-0.068;2024-03-06T01:59:22;100014.00;;;4.40;100.00
69842;BME280;57138;51.326;-0.068;2024-03-06T02:01:52;100015.44;;;4.35;100.00
69842;BME280;57138;51.326;-0.068;2024-03-06T02:04:19;100017.72;;;4.29;100.00
69842;BME280;57138;51.326;-0.068;2024-03-06T02:06:46;100015.38;;;4.26;100.00
69842;BME280;57138;51.326;-0.068;2024-03-06T02:09:12;100004.13;;;4.24;100.00
69842;BME280;57138;51.326;-0.068;2024-03-06T02:11:39;100019.50;;;4.21;100.00
69842;BME280;57138;51.326;-0.068;2024-03-06T02:14:05;100011.56;;;4.21;100.00
69842;BME280;57138;51.326;-0.068;2024-03-06T02:16:37;100015.31;;;4.18;100.00
69842;BME280;57138;51.326;-0.068;2024-03-06T02:19:05;100026.22;;;4.15;100.00
69842;BME280;57138;51.326;-0.068;2024-03-06T02:21:30;100022.03;;;4.12;100.00
69842;BME280;57138;51.326;-0.068;2024-03-06T02:23:56;100018.19;;;4.07;100.00
69842;BME280;57138;51.326;-0.068;2024-03-06T02:26:22;100027.13;;;4.06;100.00
69842;BME280;57138;51.326;-0.068;2024-03-06T02:28:48;100029.09;;;4.04;100.00
69842;BME280;57138;51.326;-0.068;2024-03-06T02:31:16;100026.03;;;3.99;100.00
69842;BME280;57138;51.326;-0.068;2024-03-06T02:33:45;100023.53;;;3.97;100.00
69842;BME280;57138;51.326;-0.068;2024-03-06T02:36:12;100022.94;;;4.03;100.00
69842;BME280;57138;51.326;-0.068;2024-03-06T02:38:38;100027.94;;;4.06;100.00
69842;BME280;57138;51.326;-0.068;2024-03-06T02:41:04;100027.19;;;4.14;100.00
69842;BME280;57138;51.326;-0.068;2024-03-06T02:43:31;100027.03;;;4.16;100.00
69842;BME280;57138;51.326;-0.068;2024-03-06T02:45:57;100023.41;;;4.17;100.00
69842;BME280;57138;51.326;-0.068;2024-03-06T02:48:22;100018.19;;;4.07;100.00
69842;BME280;57138;51.326;-0.068;2024-03-06T02:50:48;100018.50;;;4.04;100.00
69842;BME280;57138;51.326;-0.068;2024-03-06T02:53:14;100008.53;;;3.98;100.00
69842;BME280;57138;51.326;-0.068;2024-03-06T02:55:39;100005.94;;;4.06;100.00
69842;BME280;57138;51.326;-0.068;2024-03-06T02:58:05;100003.38;;;4.14;100.00
69842;BME280;57138;51.326;-0.068;2024-03-06T03:00:30;100000.34;;;4.09;100.00
69842;BME280;57138;51.326;-0.068;2024-03-06T03:02:57;99998.06;;;4.14;100.00
69842;BME280;57138;51.326;-0.068;2024-03-06T03:05:22;100003.66;;;4.11;100.00
69842;BME280;57138;51.326;-0.068;2024-03-06T03:07:49;99996.34;;;4.05;100.00
69842;BME280;57138;51.326;-0.068;2024-03-06T03:10:14;99991.50;;;4.00;100.00
69842;BME280;57138;51.326;-0.068;2024-03-06T03:12:40;100002.94;;;4.01;100.00
69842;BME280;57138;51.326;-0.068;2024-03-06T03:15:05;99997.72;;;4.09;100.00
69842;BME280;57138;51.326;-0.068;2024-03-06T03:17:32;100002.69;;;4.12;100.00
69842;BME280;57138;51.326;-0.068;2024-03-06T03:19:58;100008.34;;;4.17;100.00
69842;BME280;57138;51.326;-0.068;2024-03-06T03:22:23;100008.41;;;4.25;100.00
69842;BME280;57138;51.326;-0.068;2024-03-06T03:24:48;100012.22;;;4.23;100.00
69842;BME280;57138;51.326;-0.068;2024-03-06T03:27:14;100012.44;;;4.29;100.00
69842;BME280;57138;51.326;-0.068;2024-03-06T03:29:39;100005.69;;;4.35;100.00
69842;BME280;57138;51.326;-0.068;2024-03-06T03:32:05;99995.31;;;4.42;100.00
69842;BME280;57138;51.326;-0.068;2024-03-06T03:34:31;99998.63;;;4.44;100.00
69842;BME280;57138;51.326;-0.068;2024-03-06T03:36:56;100010.59;;;4.48;100.00
69842;BME280;57138;51.326;-0.068;2024-03-06T03:39:22;100009.16;;;4.54;100.00
69842;BME280;57138;51.326;-0.068;2024-03-06T03:41:49;100003.00;;;4.53;100.00
69842;BME280;57138;51.326;-0.068;2024-03-06T03:44:16;100000.38;;;4.53;100.00
69842;BME280;57138;51.326;-0.068;2024-03-06T03:46:42;100002.53;;;4.58;100.00
69842;BME280;57138;51.326;-0.068;2024-03-06T03:49:08;100000.38;;;4.53;100.00
69842;BME280;57138;51.326;-0.068;2024-03-06T03:51:37;100003.00;;;4.53;100.00
69842;BME280;57138;51.326;-0.068;2024-03-06T03:54:05;100010.50;;;4.58;100.00
69842;BME280;57138;51.326;-0.068;2024-03-06T03:56:32;100009.19;;;4.62;100.00
69842;BME280;57138;51.326;-0.068;2024-03-06T03:58:58;100014.66;;;4.60;100.00
69842;BME280;57138;51.326;-0.068;2024-03-06T04:01:27;100016.19;;;4.63;100.00
69842;BME280;57138;51.326;-0.068;2024-03-06T04:03:52;100025.25;;;4.60;100.00
69842;BME280;57138;51.326;-0.068;2024-03-06T04:06:17;100017.63;;;4.57;100.00
69842;BME280;57138;51.326;-0.068;2024-03-06T04:08:44;100030.22;;;4.63;100.00
69842;BME280;57138;51.326;-0.068;2024-03-06T04:11:09;100027.75;;;4.62;100.00
69842;BME280;57138;51.326;-0.068;2024-03-06T04:13:38;100031.91;;;4.64;100.00
69842;BME280;57138;51.326;-0.068;2024-03-06T04:16:04;100023.81;;;4.66;100.00
69842;BME280;57138;51.326;-0.068;2024-03-06T04:18:31;100028.94;;;4.67;100.00
69842;BME280;57138;51.326;-0.068;2024-03-06T04:21:06;100024.94;;;4.63;100.00
69842;BME280;57138;51.326;-0.068;2024-03-06T04:23:33;100028.25;;;4.65;100.00
69842;BME280;57138;51.326;-0.068;2024-03-06T04:25:59;100023.25;;;4.62;100.00
69842;BME280;57138;51.326;-0.068;2024-03-06T04:28:25;100029.63;;;4.70;100.00
69842;BME280;57138;51.326;-0.068;2024-03-06T04:30:50;100024.44;;;4.60;100.00
69842;BME280;57138;51.326;-0.068;2024-03-06T04:33:15;100031.53;;;4.59;100.00
69842;BME280;57138;51.326;-0.068;2024-03-06T04:35:41;100032.22;;;4.61;100.00
69842;BME280;57138;51.326;-0.068;2024-03-06T04:38:07;100035.22;;;4.66;100.00
69842;BME280;57138;51.326;-0.068;2024-03-06T04:40:33;100030.59;;;4.68;100.00
69842;BME280;57138;51.326;-0.068;2024-03-06T04:43:00;100040.22;;;4.70;100.00
69842;BME280;57138;51.326;-0.068;2024-03-06T04:45:25;100043.06;;;4.76;100.00
69842;BME280;57138;51.326;-0.068;2024-03-06T04:47:51;100039.25;;;4.71;100.00
69842;BME280;57138;51.326;-0.068;2024-03-06T04:50:16;100041.03;;;4.70;100.00
69842;BME280;57138;51.326;-0.068;2024-03-06T04:52:43;100048.50;;;4.75;100.00
69842;BME280;57138;51.326;-0.068;2024-03-06T04:55:10;100040.94;;;4.80;100.00
69842;BME280;57138;51.326;-0.068;2024-03-06T04:57:37;100050.84;;;4.78;100.00
69842;BME280;57138;51.326;-0.068;2024-03-06T05:00:02;100047.22;;;4.79;100.00
69842;BME280;57138;51.326;-0.068;2024-03-06T05:02:34;100057.81;;;4.79;100.00
69842;BME280;57138;51.326;-0.068;2024-03-06T05:05:01;100057.53;;;4.82;100.00
69842;BME280;57138;51.326;-0.068;2024-03-06T05:07:31;100061.19;;;4.89;100.00
69842;BME280;57138;51.326;-0.068;2024-03-06T05:09:58;100063.16;;;4.87;100.00
69842;BME280;57138;51.326;-0.068;2024-03-06T05:12:24;100064.53;;;4.91;100.00
69842;BME280;57138;51.326;-0.068;2024-03-06T05:14:50;100068.50;;;4.95;100.00
69842;BME280;57138;51.326;-0.068;2024-03-06T05:17:16;100077.78;;;4.91;100.00
69842;BME280;57138;51.326;-0.068;2024-03-06T05:19:43;100076.72;;;4.84;100.00
69842;BME280;57138;51.326;-0.068;2024-03-06T05:22:08;100087.69;;;4.89;100.00
69842;BME280;57138;51.326;-0.068;2024-03-06T05:24:34;100081.09;;;4.93;100.00
69842;BME280;57138;51.326;-0.068;2024-03-06T05:26:59;100080.44;;;4.91;100.00
69842;BME280;57138;51.326;-0.068;2024-03-06T05:29:24;100084.56;;;4.94;100.00
69842;BME280;57138;51.326;-0.068;2024-03-06T05:31:50;100084.72;;;4.92;100.00
69842;BME280;57138;51.326;-0.068;2024-03-06T05:34:15;100088.88;;;4.95;100.00
69842;BME280;57138;51.326;-0.068;2024-03-06T05:36:41;100092.91;;;4.99;100.00
69842;BME280;57138;51.326;-0.068;2024-03-06T05:39:06;100085.41;;;4.94;100.00
69842;BME280;57138;51.326;-0.068;2024-03-06T05:41:33;100095.88;;;4.96;100.00
69842;BME280;57138;51.326;-0.068;2024-03-06T05:43:58;100090.41;;;4.97;100.00
69842;BME280;57138;51.326;-0.068;2024-03-06T05:46:24;100095.00;;;4.95;100.00
69842;BME280;57138;51.326;-0.068;2024-03-06T05:48:50;100098.34;;;4.97;100.00
69842;BME280;57138;51.326;-0.068;2024-03-06T05:51:16;100102.72;;;5.07;100.00
69842;BME280;57138;51.326;-0.068;2024-03-06T05:53:42;100098.41;;;5.06;100.00
69842;BME280;57138;51.326;-0.068;2024-03-06T05:56:08;100107.88;;;5.08;100.00
69842;BME280;57138;51.326;-0.068;2024-03-06T05:58:34;100103.69;;;5.06;100.00
69842;BME280;57138;51.326;-0.068;2024-03-06T06:01:00;100099.47;;;5.13;100.00
69842;BME280;57138;51.326;-0.068;2024-03-06T06:03:26;100101.41;;;5.11;100.00
69842;BME280;57138;51.326;-0.068;2024-03-06T06:05:53;100099.91;;;5.08;100.00
69842;BME280;57138;51.326;-0.068;2024-03-06T06:08:19;100105.06;;;5.10;100.00
69842;BME280;57138;51.326;-0.068;2024-03-06T06:10:44;100111.03;;;5.12;100.00
69842;BME280;57138;51.326;-0.068;2024-03-06T06:13:10;100112.00;;;5.11;100.00
69842;BME280;57138;51.326;-0.068;2024-03-06T06:15:35;100109.66;;;5.08;100.00
69842;BME280;57138;51.326;-0.068;2024-03-06T06:18:01;100109.97;;;5.04;100.00
69842;BME280;57138;51.326;-0.068;2024-03-06T06:20:26;100116.91;;;4.97;100.00
69842;BME280;57138;51.326;-0.068;2024-03-06T06:22:52;100125.38;;;5.01;100.00
69842;BME280;57138;51.326;-0.068;2024-03-06T06:25:17;100115.44;;;5.03;100.00
69842;BME280;57138;51.326;-0.068;2024-03-06T06:27:43;100116.28;;;5.03;100.00
69842;BME280;57138;51.326;-0.068;2024-03-06T06:30:08;100126.88;;;5.03;100.00
69842;BME280;57138;51.326;-0.068;2024-03-06T06:32:37;100124.94;;;5.14;100.00
69842;BME280;57138;51.326;-0.068;2024-03-06T06:35:06;100136.44;;;4.96;100.00
69842;BME280;57138;51.326;-0.068;2024-03-06T06:37:32;100136.47;;;5.04;100.00
69842;BME280;57138;51.326;-0.068;2024-03-06T06:39:57;100140.81;;;5.06;100.00
69842;BME280;57138;51.326;-0.068;2024-03-06T06:42:24;100146.72;;;4.99;100.00
69842;BME280;57138;51.326;-0.068;2024-03-06T06:44:50;100154.31;;;4.94;100.00
69842;BME280;57138;51.326;-0.068;2024-03-06T06:47:15;100148.00;;;4.95;100.00
69842;BME280;57138;51.326;-0.068;2024-03-06T06:49:40;100146.56;;;5.01;100.00
69842;BME280;57138;51.326;-0.068;2024-03-06T06:52:06;100155.03;;;5.04;100.00
69842;BME280;57138;51.326;-0.068;2024-03-06T06:54:31;100142.03;;;4.93;100.00
69842;BME280;57138;51.326;-0.068;2024-03-06T06:56:56;100154.81;;;4.98;100.00
69842;BME280;57138;51.326;-0.068;2024-03-06T06:59:22;100153.09;;;5.07;100.00
69842;BME280;57138;51.326;-0.068;2024-03-06T07:01:48;100147.94;;;5.05;100.00
69842;BME280;57138;51.326;-0.068;2024-03-06T07:04:13;100157.16;;;5.19;100.00
69842;BME280;57138;51.326;-0.068;2024-03-06T07:06:42;100157.38;;;5.08;100.00
69842;BME280;57138;51.326;-0.068;2024-03-06T07:09:07;100167.00;;;5.09;100.00
69842;BME280;57138;51.326;-0.068;2024-03-06T07:11:34;100165.31;;;5.08;100.00
69842;BME280;57138;51.326;-0.068;2024-03-06T07:14:00;100175.31;;;5.14;100.00
69842;BME280;57138;51.326;-0.068;2024-03-06T07:16:25;100170.31;;;5.11;100.00
69842;BME280;57138;51.326;-0.068;2024-03-06T07:18:50;100180.59;;;5.14;100.00
69842;BME280;57138;51.326;-0.068;2024-03-06T07:21:16;100179.31;;;5.18;100.00
69842;BME280;57138;51.326;-0.068;2024-03-06T07:23:43;100183.34;;;5.22;100.00
69842;BME280;57138;51.326;-0.068;2024-03-06T07:26:09;100175.31;;;5.14;100.00
69842;BME280;57138;51.326;-0.068;2024-03-06T07:28:35;100176.38;;;5.21;100.00
69842;BME280;57138;51.326;-0.068;2024-03-06T07:31:02;100189.66;;;5.29;100.00
69842;BME280;57138;51.326;-0.068;2024-03-06T07:33:28;100190.91;;;5.17;100.00
69842;BME280;57138;51.326;-0.068;2024-03-06T07:35:53;100190.09;;;5.16;100.00
69842;BME280;57138;51.326;-0.068;2024-03-06T07:38:18;100189.47;;;5.22;100.00
69842;BME280;57138;51.326;-0.068;2024-03-06T07:40:44;100188.81;;;5.20;100.00
69842;BME280;57138;51.326;-0.068;2024-03-06T07:43:10;100196.13;;;5.27;100.00
69842;BME280;57138;51.326;-0.068;2024-03-06T07:45:36;100189.06;;;5.35;100.00
69842;BME280;57138;51.326;-0.068;2024-03-06T07:48:02;100192.06;;;5.40;100.00
69842;BME280;57138;51.326;-0.068;2024-03-06T07:50:27;100190.94;;;5.43;100.00
69842;BME280;57138;51.326;-0.068;2024-03-06T07:52:53;100192.28;;;5.47;100.00
69842;BME280;57138;51.326;-0.068;2024-03-06T07:55:20;100183.31;;;5.48;100.00
69842;BME280;57138;51.326;-0.068;2024-03-06T07:57:48;100196.13;;;5.53;100.00
69842;BME280;57138;51.326;-0.068;2024-03-06T08:00:15;100188.47;;;5.50;100.00
69842;BME280;57138;51.326;-0.068;2024-03-06T08:02:41;100197.78;;;5.54;100.00
69842;BME280;57138;51.326;-0.068;2024-03-06T08:05:12;100191.91;;;5.68;100.00
69842;BME280;57138;51.326;-0.068;2024-03-06T08:07:41;100205.75;;;5.80;100.00
69842;BME280;57138;51.326;-0.068;2024-03-06T08:10:11;100204.63;;;5.91;100.00
69842;BME280;57138;51.326;-0.068;2024-03-06T08:12:43;100207.59;;;5.88;100.00
69842;BME280;57138;51.326;-0.068;2024-03-06T08:15:11;100210.78;;;5.91;100.00
69842;BME280;57138;51.326;-0.068;2024-03-06T08:17:38;100222.31;;;6.00;100.00
69842;BME280;57138;51.326;-0.068;2024-03-06T08:20:04;100222.13;;;6.02;100.00
69842;BME280;57138;51.326;-0.068;2024-03-06T08:22:37;100217.31;;;5.97;100.00
69842;BME280;57138;51.326;-0.068;2024-03-06T08:25:07;100224.00;;;6.09;100.00
69842;BME280;57138;51.326;-0.068;2024-03-06T08:27:34;100228.78;;;6.06;100.00
69842;BME280;57138;51.326;-0.068;2024-03-06T08:30:00;100223.94;;;6.01;100.00
69842;BME280;57138;51.326;-0.068;2024-03-06T08:32:25;100228.78;;;6.06;100.00
69842;BME280;57138;51.326;-0.068;2024-03-06T08:34:51;100229.94;;;6.03;100.00
69842;BME280;57138;51.326;-0.068;2024-03-06T08:37:16;100224.41;;;5.97;100.00
69842;BME280;57138;51.326;-0.068;2024-03-06T08:39:41;100228.28;;;6.02;100.00
69842;BME280;57138;51.326;-0.068;2024-03-06T08:42:07;100231.75;;;6.03;100.00
69842;BME280;57138;51.326;-0.068;2024-03-06T08:44:33;100242.09;;;6.14;100.00
69842;BME280;57138;51.326;-0.068;2024-03-06T08:46:59;100242.09;;;6.14;100.00
69842;BME280;57138;51.326;-0.068;2024-03-06T08:49:24;100238.81;;;6.20;100.00
69842;BME280;57138;51.326;-0.068;2024-03-06T08:51:51;100238.34;;;6.25;100.00
69842;BME280;57138;51.326;-0.068;2024-03-06T08:54:16;100246.31;;;6.33;100.00
69842;BME280;57138;51.326;-0.068;2024-03-06T08:56:44;100238.34;;;6.33;100.00
69842;BME280;57138;51.326;-0.068;2024-03-06T08:59:10;100248.53;;;6.46;100.00
69842;BME280;57138;51.326;-0.068;2024-03-06T09:01:35;100251.69;;;6.50;100.00
69842;BME280;57138;51.326;-0.068;2024-03-06T09:04:01;100243.06;;;6.47;100.00
69842;BME280;57138;51.326;-0.068;2024-03-06T09:06:27;100251.34;;;6.53;100.00
69842;BME280;57138;51.326;-0.068;2024-03-06T09:08:54;100258.72;;;6.67;100.00
69842;BME280;57138;51.326;-0.068;2024-03-06T09:11:19;100259.06;;;6.64;100.00
69842;BME280;57138;51.326;-0.068;2024-03-06T09:13:44;100261.72;;;6.64;100.00
69842;BME280;57138;51.326;-0.068;2024-03-06T09:16:10;100261.06;;;6.78;100.00
69842;BME280;57138;51.326;-0.068;2024-03-06T09:18:35;100263.41;;;6.73;100.00
69842;BME280;57138;51.326;-0.068;2024-03-06T09:21:01;100261.41;;;6.75;100.00
69842;BME280;57138;51.326;-0.068;2024-03-06T09:23:27;100271.38;;;6.90;100.00
69842;BME280;57138;51.326;-0.068;2024-03-06T09:25:55;100270.75;;;7.04;100.00
69842;BME280;57138;51.326;-0.068;2024-03-06T09:28:20;100270.72;;;6.96;100.00
69842;BME280;57138;51.326;-0.068;2024-03-06T09:30:45;100273.06;;;6.99;100.00
69842;BME280;57138;51.326;-0.068;2024-03-06T09:33:11;100276.09;;;7.12;100.00
69842;BME280;57138;51.326;-0.068;2024-03-06T09:35:36;100274.28;;;7.29;100.00
69842;BME280;57138;51.326;-0.068;2024-03-06T09:38:02;100271.78;;;7.28;100.00
69842;BME280;57138;51.326;-0.068;2024-03-06T09:40:27;100271.78;;;7.36;100.00
69842;BME280;57138;51.326;-0.068;2024-03-06T09:42:54;100273.44;;;7.45;100.00
69842;BME280;57138;51.326;-0.068;2024-03-06T09:45:20;100277.09;;;7.44;100.00
69842;BME280;57138;51.326;-0.068;2024-03-06T09:47:47;100271.09;;;7.50;100.00
69842;BME280;57138;51.326;-0.068;2024-03-06T09:50:16;100275.75;;;7.65;100.00
69842;BME280;57138;51.326;-0.068;2024-03-06T09:52:46;100276.75;;;7.64;100.00
69842;BME280;57138;51.326;-0.068;2024-03-06T09:55:13;100279.41;;;7.72;100.00
69842;BME280;57138;51.326;-0.068;2024-03-06T09:57:40;100284.69;;;7.80;100.00
69842;BME280;57138;51.326;-0.068;2024-03-06T10:00:06;100279.22;;;7.82;100.00
69842;BME280;57138;51.326;-0.068;2024-03-06T10:02:38;100289.03;;;7.81;100.00
69842;BME280;57138;51.326;-0.068;2024-03-06T10:05:04;100285.56;;;7.81;100.00
69842;BME280;57138;51.326;-0.068;2024-03-06T10:07:31;100289.19;;;7.88;100.00
69842;BME280;57138;51.326;-0.068;2024-03-06T10:09:56;100298.19;;;7.87;100.00
69842;BME280;57138;51.326;-0.068;2024-03-06T10:12:22;100287.03;;;7.83;100.00
69842;BME280;57138;51.326;-0.068;2024-03-06T10:14:49;100298.03;;;7.88;100.00
69842;BME280;57138;51.326;-0.068;2024-03-06T10:17:19;100290.34;;;7.94;100.00
69842;BME280;57138;51.326;-0.068;2024-03-06T10:19:49;100301.44;;;8.05;100.00
69842;BME280;57138;51.326;-0.068;2024-03-06T10:22:20;100294.28;;;8.14;100.00
69842;BME280;57138;51.326;-0.068;2024-03-06T10:24:49;100298.91;;;8.28;100.00
69842;BME280;57138;51.326;-0.068;2024-03-06T10:27:17;100295.38;;;8.44;100.00
69842;BME280;57138;51.326;-0.068;2024-03-06T10:29:42;100299.66;;;8.54;100.00
69842;BME280;57138;51.326;-0.068;2024-03-06T10:32:09;100301.34;;;8.55;100.00
69842;BME280;57138;51.326;-0.068;2024-03-06T10:34:37;100305.63;;;8.64;100.00
69842;BME280;57138;51.326;-0.068;2024-03-06T10:37:02;100305.63;;;8.64;100.00
69842;BME280;57138;51.326;-0.068;2024-03-06T10:39:35;100303.59;;;8.66;100.00
69842;BME280;57138;51.326;-0.068;2024-03-06T10:42:02;100304.41;;;8.75;100.00
69842;BME280;57138;51.326;-0.068;2024-03-06T10:44:33;100304.72;;;8.80;100.00
69842;BME280;57138;51.326;-0.068;2024-03-06T10:47:03;100302.44;;;8.69;100.00
69842;BME280;57138;51.326;-0.068;2024-03-06T10:49:30;100300.41;;;8.71;100.00
69842;BME280;57138;51.326;-0.068;2024-03-06T10:52:03;100299.72;;;8.77;100.00
69842;BME280;57138;51.326;-0.068;2024-03-06T10:54:32;100293.69;;;8.83;100.00
69842;BME280;57138;51.326;-0.068;2024-03-06T10:57:01;100298.16;;;8.91;100.00
69842;BME280;57138;51.326;-0.068;2024-03-06T10:59:28;100302.31;;;8.93;100.00
69842;BME280;57138;51.326;-0.068;2024-03-06T11:01:58;100305.44;;;8.97;100.00
69842;BME280;57138;51.326;-0.068;2024-03-06T11:04:26;100303.97;;;8.94;100.00
69842;BME280;57138;51.326;-0.068;2024-03-06T11:06:55;100307.66;;;8.93;100.00
69842;BME280;57138;51.326;-0.068;2024-03-06T11:09:21;100305.34;;;8.90;100.00
69842;BME280;57138;51.326;-0.068;2024-03-06T11:11:51;100311.59;;;8.97;100.00
69842;BME280;57138;51.326;-0.068;2024-03-06T11:14:17;100311.25;;;9.00;100.00
69842;BME280;57138;51.326;-0.068;2024-03-06T11:17:03;100309.84;;;9.13;100.00
69842;BME280;57138;51.326;-0.068;2024-03-06T11:19:32;100315.50;;;9.18;100.00
69842;BME280;57138;51.326;-0.068;2024-03-06T11:22:14;100313.53;;;9.12;100.00
69842;BME280;57138;51.326;-0.068;2024-03-06T11:24:41;100314.25;;;9.06;100.00
69842;BME280;57138;51.326;-0.068;2024-03-06T11:27:07;100315.25;;;9.05;100.00
69842;BME280;57138;51.326;-0.068;2024-03-06T11:30:05;100310.56;;;9.07;100.00
69842;BME280;57138;51.326;-0.068;2024-03-06T11:32:36;100320.66;;;9.20;100.00
69842;BME280;57138;51.326;-0.068;2024-03-06T11:35:02;100313.13;;;9.23;100.00
69842;BME280;57138;51.326;-0.068;2024-03-06T11:37:29;100313.72;;;9.33;100.00
69842;BME280;57138;51.326;-0.068;2024-03-06T11:39:59;100314.09;;;9.30;100.00
69842;BME280;57138;51.326;-0.068;2024-03-06T11:42:35;100320.06;;;9.32;100.00
69842;BME280;57138;51.326;-0.068;2024-03-06T11:45:16;100313.06;;;9.31;100.00
69842;BME280;57138;51.326;-0.068;2024-03-06T11:48:01;100311.78;;;9.27;100.00
69842;BME280;57138;51.326;-0.068;2024-03-06T11:50:27;100319.72;;;9.35;100.00
69842;BME280;57138;51.326;-0.068;2024-03-06T11:52:54;100319.47;;;9.22;100.00
69842;BME280;57138;51.326;-0.068;2024-03-06T11:55:23;100309.75;;;9.29;100.00
69842;BME280;57138;51.326;-0.068;2024-03-06T11:57:51;100311.78;;;9.27;100.00
69842;BME280;57138;51.326;-0.068;2024-03-06T12:00:16;100315.00;;;9.38;100.00
69842;BME280;57138;51.326;-0.068;2024-03-06T12:02:42;100319.03;;;9.57;100.00
69842;BME280;57138;51.326;-0.068;2024-03-06T12:05:08;100314.81;;;9.62;100.00
69842;BME280;57138;51.326;-0.068;2024-03-06T12:07:53;100300.31;;;9.80;100.00
69842;BME280;57138;51.326;-0.068;2024-03-06T12:10:19;100309.00;;;9.82;98.63
69842;BME280;57138;51.326;-0.068;2024-03-06T12:12:45;100303.66;;;9.82;98.95
69842;BME280;57138;51.326;-0.068;2024-03-06T12:15:11;100309.34;;;9.79;99.68
69842;BME280;57138;51.326;-0.068;2024-03-06T12:17:46;100309.00;;;9.82;100.00
69842;BME280;57138;51.326;-0.068;2024-03-06T12:20:13;100316.72;;;9.92;100.00
69842;BME280;57138;51.326;-0.068;2024-03-06T12:22:48;100308.44;;;10.01;100.00
69842;BME280;57138;51.326;-0.068;2024-03-06T12:25:20;100310.66;;;10.13;100.00
69842;BME280;57138;51.326;-0.068;2024-03-06T12:27:47;100312.91;;;10.24;100.00
69842;BME280;57138;51.326;-0.068;2024-03-06T12:30:15;100297.88;;;10.23;99.88
69842;BME280;57138;51.326;-0.068;2024-03-06T12:33:03;100312.16;;;10.30;100.00
69842;BME280;57138;51.326;-0.068;2024-03-06T12:35:30;100305.53;;;10.26;100.00
69842;BME280;57138;51.326;-0.068;2024-03-06T12:37:55;100306.81;;;10.30;100.00
69842;BME280;57138;51.326;-0.068;2024-03-06T12:40:21;100310.13;;;10.32;99.54